createdAt,value
2018-05-10T00:01:52.869Z,8.10
2018-05-10T00:04:23.847Z,9.03
2018-05-10T00:06:54.907Z,6.97
2018-05-10T00:09:25.932Z,7.43
2018-05-10T00:11:56.917Z,8.43
2018-05-10T00:14:27.958Z,8.23
2018-05-10T00:16:58.950Z,7.33
2018-05-10T00:19:29.960Z,7.57
2018-05-10T00:22:00.911Z,7.37
2018-05-10T00:24:31.896Z,7.77
2018-05-10T00:27:02.932Z,8.23
2018-05-10T00:29:33.866Z,8.13
2018-05-10T00:32:04.890Z,8.07
2018-05-10T00:34:35.870Z,9.30
2018-05-10T00:37:06.872Z,7.60
2018-05-10T00:39:52.767Z,11.67
2018-05-10T00:42:23.767Z,8.00
2018-05-10T00:44:54.747Z,8.10
2018-05-10T00:47:25.763Z,8.70
2018-05-10T00:49:56.812Z,8.10
2018-05-10T00:52:27.818Z,8.57
2018-05-10T00:54:58.830Z,7.37
2018-05-10T00:57:29.836Z,7.93
2018-05-10T01:00:00.844Z,8.67
2018-05-10T01:02:31.826Z,9.47
2018-05-10T01:05:02.880Z,8.37
2018-05-10T01:07:33.870Z,8.60
2018-05-10T01:10:04.878Z,8.53
2018-05-10T01:12:35.880Z,8.43
2018-05-10T01:15:06.883Z,9.00
2018-05-10T01:17:37.900Z,9.87
2018-05-10T01:20:08.890Z,9.10
2018-05-10T01:22:39.868Z,9.00
2018-05-10T01:25:10.866Z,8.93
2018-05-10T01:27:41.894Z,8.60
2018-05-10T01:30:12.898Z,8.10
2018-05-10T01:32:43.901Z,10.07
2018-05-10T01:35:27.148Z,9.87
2018-05-10T01:37:58.148Z,10.23
2018-05-10T01:40:29.188Z,9.80
2018-05-10T01:43:00.165Z,11.73
2018-05-10T01:45:31.152Z,9.87
2018-05-10T01:48:02.186Z,10.60
2018-05-10T01:50:33.191Z,10.60
2018-05-10T01:53:11.134Z,11.30
2018-05-10T01:55:42.158Z,12.57
2018-05-10T01:58:13.142Z,12.20
2018-05-10T02:00:44.160Z,12.30
2018-05-10T02:03:15.123Z,10.60
2018-05-10T02:05:46.149Z,11.60
2018-05-10T02:08:17.119Z,11.33
2018-05-10T02:10:48.121Z,10.67
2018-05-10T02:13:19.153Z,11.07
2018-05-10T02:15:50.167Z,10.20
2018-05-10T02:18:21.163Z,10.77
2018-05-10T02:20:52.118Z,10.83
2018-05-10T02:23:23.096Z,10.77
2018-05-10T02:25:54.094Z,12.40
2018-05-10T02:28:25.121Z,10.00
2018-05-10T02:30:56.127Z,9.43
2018-05-10T02:33:27.083Z,9.77
2018-05-10T02:35:58.081Z,10.70
2018-05-10T02:38:29.091Z,11.10
2018-05-10T02:41:00.108Z,10.33
2018-05-10T02:43:31.107Z,9.60
2018-05-10T02:46:02.181Z,9.13
2018-05-10T02:48:33.184Z,9.17
2018-05-10T02:51:04.158Z,8.80
2018-05-10T02:53:35.136Z,10.40
2018-05-10T02:56:06.176Z,9.90
2018-05-10T02:58:37.169Z,9.80
2018-05-10T03:01:08.190Z,10.10
2018-05-10T03:03:39.247Z,9.07
2018-05-10T03:06:10.302Z,10.60
2018-05-10T03:08:41.353Z,10.10
2018-05-10T03:11:12.363Z,11.13
2018-05-10T03:13:43.389Z,10.13
2018-05-10T03:16:14.379Z,9.97
2018-05-10T03:18:45.382Z,9.80
2018-05-10T03:21:16.333Z,10.50
2018-05-10T03:23:47.330Z,11.33
2018-05-10T03:26:18.413Z,10.00
2018-05-10T03:28:49.473Z,11.63
2018-05-10T03:31:20.475Z,11.37
2018-05-10T03:33:51.452Z,10.70
2018-05-10T03:36:22.448Z,10.47
2018-05-10T03:38:53.449Z,10.80
2018-05-10T03:41:24.443Z,10.93
2018-05-10T03:43:55.500Z,11.43
2018-05-10T03:46:26.559Z,10.83
2018-05-10T03:48:57.473Z,10.27
2018-05-10T03:51:28.414Z,10.97
2018-05-10T03:53:59.483Z,11.47
2018-05-10T03:56:30.473Z,10.70
2018-05-10T03:59:01.452Z,9.97
2018-05-10T04:01:32.413Z,11.23
2018-05-10T04:04:19.552Z,11.80
2018-05-10T04:07:02.944Z,11.33
2018-05-10T04:09:46.463Z,11.27
2018-05-10T04:12:17.484Z,10.83
2018-05-10T04:14:48.475Z,10.97
2018-05-10T04:17:19.453Z,11.13
2018-05-10T04:19:50.447Z,10.73
2018-05-10T04:22:21.451Z,11.23
2018-05-10T04:24:52.463Z,11.37
2018-05-10T04:27:23.435Z,10.83
2018-05-10T04:29:54.407Z,11.17
2018-05-10T04:32:25.427Z,11.20
2018-05-10T04:34:56.370Z,11.53
2018-05-10T04:37:27.358Z,11.23
2018-05-10T04:39:58.306Z,10.97
2018-05-10T04:42:29.277Z,10.87
2018-05-10T04:45:00.284Z,10.90
2018-05-10T04:47:31.288Z,11.07
2018-05-10T04:50:02.352Z,11.30
2018-05-10T04:52:33.362Z,10.10
2018-05-10T04:55:04.355Z,11.33
2018-05-10T04:57:35.334Z,9.63
2018-05-10T05:00:06.344Z,11.07
2018-05-10T05:02:37.308Z,10.17
2018-05-10T05:05:08.296Z,9.97
2018-05-10T05:07:39.297Z,10.77
2018-05-10T05:10:10.296Z,10.43
2018-05-10T05:12:41.300Z,9.70
2018-05-10T05:15:12.263Z,9.57
2018-05-10T05:17:43.280Z,10.00
2018-05-10T05:20:14.258Z,10.40
2018-05-10T05:22:45.235Z,10.17
2018-05-10T05:25:16.229Z,10.43
2018-05-10T05:27:47.221Z,9.83
2018-05-10T05:30:18.231Z,10.77
2018-05-10T05:32:49.206Z,9.93
2018-05-10T05:35:20.209Z,12.13
2018-05-10T05:37:51.188Z,10.37
2018-05-10T05:40:22.204Z,10.03
2018-05-10T05:42:53.185Z,9.70
2018-05-10T05:45:24.203Z,10.43
2018-05-10T05:47:55.175Z,9.90
2018-05-10T05:50:26.213Z,9.57
2018-05-10T05:52:57.158Z,9.87
2018-05-10T05:55:28.156Z,9.83
2018-05-10T05:57:59.102Z,9.77
2018-05-10T06:00:30.111Z,9.40
2018-05-10T06:03:01.084Z,9.67
2018-05-10T06:05:32.074Z,8.63
2018-05-10T06:08:03.090Z,9.10
2018-05-10T06:10:34.119Z,7.83
2018-05-10T06:13:05.079Z,7.93
2018-05-10T06:15:36.159Z,7.30
2018-05-10T06:18:09.986Z,7.93
2018-05-10T06:20:40.989Z,7.43
2018-05-10T06:23:12.014Z,7.03
2018-05-10T06:25:43.010Z,6.97
2018-05-10T06:28:14.053Z,7.47
2018-05-10T06:30:45.026Z,7.17
2018-05-10T06:33:16.070Z,6.37
2018-05-10T06:35:47.068Z,6.10
2018-05-10T06:38:18.088Z,6.15
2018-05-10T06:40:49.068Z,6.12
2018-05-10T06:43:20.098Z,6.35
2018-05-10T06:45:51.069Z,6.22
2018-05-10T06:48:22.082Z,6.25
2018-05-10T06:50:53.102Z,6.00
2018-05-10T06:53:24.136Z,5.75
2018-05-10T06:55:55.167Z,6.35
2018-05-10T06:58:26.188Z,6.37
2018-05-10T07:00:57.204Z,6.28
2018-05-10T07:03:28.263Z,6.18
2018-05-10T07:05:59.262Z,6.65
2018-05-10T07:08:30.287Z,6.65
2018-05-10T07:11:01.258Z,6.15
2018-05-10T07:13:32.288Z,6.50
2018-05-10T07:16:03.294Z,6.35
2018-05-10T07:18:34.317Z,7.07
2018-05-10T07:21:05.288Z,6.30
2018-05-10T07:23:36.281Z,6.25
2018-05-10T07:26:07.335Z,6.20
2018-05-10T07:28:38.326Z,6.63
2018-05-10T07:31:09.326Z,6.82
2018-05-10T07:33:40.332Z,6.18
2018-05-10T07:36:11.320Z,6.32
2018-05-10T07:38:42.317Z,6.18
2018-05-10T07:41:13.295Z,6.72
2018-05-10T07:43:44.278Z,6.45
2018-05-10T07:46:15.304Z,6.93
2018-05-10T07:48:46.263Z,6.43
2018-05-10T07:51:17.279Z,6.60
2018-05-10T07:53:48.267Z,6.47
2018-05-10T07:56:19.251Z,6.60
2018-05-10T07:58:50.227Z,7.43
2018-05-10T08:01:21.300Z,6.97
2018-05-10T08:03:52.253Z,7.00
2018-05-10T08:06:23.288Z,6.82
2018-05-10T08:08:54.243Z,6.47
2018-05-10T08:11:25.273Z,6.40
2018-05-10T08:13:56.268Z,6.80
2018-05-10T08:16:27.284Z,6.45
2018-05-10T08:18:58.298Z,6.85
2018-05-10T08:21:29.279Z,6.25
2018-05-10T08:24:00.305Z,7.32
2018-05-10T08:26:31.341Z,6.60
2018-05-10T08:29:02.354Z,6.18
2018-05-10T08:31:33.361Z,5.45
2018-05-10T08:34:04.373Z,5.93
2018-05-10T08:36:35.397Z,5.57
2018-05-10T08:39:06.409Z,5.28
2018-05-10T08:41:37.378Z,5.30
2018-05-10T08:44:08.382Z,5.07
2018-05-10T08:46:39.382Z,5.97
2018-05-10T08:49:17.318Z,5.05
2018-05-10T08:51:48.453Z,8.15
2018-05-10T08:54:19.394Z,5.57
2018-05-10T08:56:50.359Z,5.62
2018-05-10T08:59:21.363Z,5.50
2018-05-10T09:01:52.392Z,5.20
2018-05-10T09:04:23.373Z,5.95
2018-05-10T09:06:54.382Z,6.30
2018-05-10T09:09:25.367Z,4.37
2018-05-10T09:11:56.393Z,5.45
2018-05-10T09:14:27.416Z,4.55
2018-05-10T09:16:58.412Z,4.60
2018-05-10T09:19:29.441Z,4.53
2018-05-10T09:22:00.466Z,18.45
2018-05-10T09:24:31.496Z,4.95
2018-05-10T09:27:02.516Z,5.32
2018-05-10T09:29:33.489Z,4.70
2018-05-10T09:32:04.471Z,3.92
2018-05-10T09:34:35.475Z,4.90
2018-05-10T09:37:06.461Z,5.28
2018-05-10T09:39:37.465Z,5.50
2018-05-10T09:42:08.497Z,6.03
2018-05-10T09:44:39.430Z,5.57
2018-05-10T09:47:10.448Z,5.12
2018-05-10T09:49:41.456Z,5.62
2018-05-10T09:52:12.478Z,5.65
2018-05-10T09:54:43.473Z,5.70
2018-05-10T09:57:14.502Z,5.57
2018-05-10T09:59:45.608Z,5.43
2018-05-10T10:02:16.578Z,6.03
2018-05-10T10:04:47.546Z,5.35
2018-05-10T10:07:18.595Z,4.87
2018-05-10T10:09:49.611Z,5.93
2018-05-10T10:12:20.647Z,4.80
2018-05-10T10:14:51.660Z,4.87
2018-05-10T10:17:22.624Z,5.97
2018-05-10T10:19:53.610Z,5.87
2018-05-10T10:22:24.633Z,5.03
2018-05-10T10:24:55.667Z,4.87
2018-05-10T10:27:26.749Z,4.47
2018-05-10T10:29:57.726Z,4.65
2018-05-10T10:32:28.740Z,4.85
2018-05-10T10:34:59.734Z,4.45
2018-05-10T10:37:30.728Z,5.12
2018-05-10T10:40:01.691Z,5.15
2018-05-10T10:42:32.678Z,5.28
2018-05-10T10:45:03.688Z,4.70
2018-05-10T10:47:34.719Z,8.87
2018-05-10T10:50:05.728Z,4.90
2018-05-10T10:52:36.732Z,4.93
2018-05-10T10:55:07.714Z,5.00
2018-05-10T10:57:38.724Z,4.63
2018-05-10T11:00:09.669Z,6.07
2018-05-10T11:02:40.680Z,6.53
2018-05-10T11:05:11.689Z,4.93
2018-05-10T11:07:42.769Z,5.73
2018-05-10T11:10:13.808Z,4.37
2018-05-10T11:12:44.792Z,5.17
2018-05-10T11:15:15.791Z,4.70
2018-05-10T11:17:46.768Z,6.20
2018-05-10T11:20:17.766Z,8.67
2018-05-10T11:22:48.743Z,6.67
2018-05-10T11:25:19.733Z,7.03
2018-05-10T11:27:50.719Z,8.53
2018-05-10T11:30:21.778Z,6.57
2018-05-10T11:32:52.767Z,5.77
2018-05-10T11:35:23.766Z,5.80
2018-05-10T11:37:54.740Z,5.73
2018-05-10T11:40:25.740Z,6.90
2018-05-10T11:42:56.704Z,6.97
2018-05-10T11:45:27.695Z,6.80
2018-05-10T11:47:58.712Z,6.90
2018-05-10T11:50:29.739Z,8.03
2018-05-10T11:53:00.732Z,8.30
2018-05-10T11:55:31.727Z,5.47
2018-05-10T11:58:02.806Z,7.80
2018-05-10T12:00:33.815Z,5.57
2018-05-10T12:03:04.864Z,5.60
2018-05-10T12:05:35.835Z,5.03
2018-05-10T12:08:06.902Z,5.60
2018-05-10T12:10:37.865Z,5.27
2018-05-10T12:13:08.874Z,7.33
2018-05-10T12:15:39.952Z,6.87
2018-05-10T12:18:10.932Z,6.00
2018-05-10T12:20:41.932Z,9.40
2018-05-10T12:23:12.987Z,6.97
2018-05-10T12:25:43.954Z,6.07
2018-05-10T12:28:15.027Z,9.97
2018-05-10T12:30:46.051Z,6.70
2018-05-10T12:33:17.064Z,6.10
2018-05-10T12:35:48.034Z,5.73
2018-05-10T12:38:19.014Z,5.83
2018-05-10T12:40:50.115Z,4.57
2018-05-10T12:43:21.073Z,5.23
2018-05-10T12:45:52.093Z,5.73
2018-05-10T12:48:23.561Z,5.73
2018-05-10T12:50:54.579Z,5.83
2018-05-10T12:53:25.606Z,6.67
2018-05-10T12:55:56.586Z,9.90
2018-05-10T12:58:27.573Z,6.07
2018-05-10T13:00:58.574Z,6.27
2018-05-10T13:03:29.571Z,6.03
2018-05-10T13:06:00.584Z,5.57
2018-05-10T13:08:31.637Z,5.67
2018-05-10T13:11:02.616Z,6.83
2018-05-10T13:13:33.648Z,5.20
2018-05-10T13:16:04.684Z,3.90
2018-05-10T13:18:35.663Z,4.57
2018-05-10T13:21:06.653Z,4.77
2018-05-10T13:23:37.656Z,7.60
2018-05-10T13:26:08.665Z,5.13
2018-05-10T13:28:39.718Z,4.20
2018-05-10T13:31:10.717Z,5.17
2018-05-10T13:33:41.722Z,5.33
2018-05-10T13:36:12.717Z,5.43
2018-05-10T13:38:43.695Z,5.17
2018-05-10T13:41:14.722Z,4.90
2018-05-10T13:43:45.773Z,5.17
2018-05-10T13:46:16.787Z,5.03
2018-05-10T13:48:47.781Z,4.80
2018-05-10T13:51:18.799Z,5.70
2018-05-10T13:53:49.778Z,6.13
2018-05-10T13:56:20.787Z,6.23
2018-05-10T13:58:51.804Z,4.30
2018-05-10T14:01:22.878Z,4.40
2018-05-10T14:03:53.856Z,4.30
2018-05-10T14:06:24.896Z,3.67
2018-05-10T14:08:55.943Z,5.23
2018-05-10T14:11:26.937Z,3.40
2018-05-10T14:13:57.910Z,3.40
2018-05-10T14:16:28.946Z,4.20
2018-05-10T14:18:59.974Z,3.63
2018-05-10T14:21:30.944Z,3.60
2018-05-10T14:24:01.958Z,4.00
2018-05-10T14:26:32.942Z,3.90
2018-05-10T14:29:03.996Z,5.03
2018-05-10T14:31:41.848Z,4.00
2018-05-10T14:34:13.142Z,8.03
2018-05-10T14:36:44.130Z,4.33
2018-05-10T14:39:15.113Z,4.10
2018-05-10T14:41:46.138Z,4.03
2018-05-10T14:44:17.137Z,5.00
2018-05-10T14:46:48.208Z,3.93
2018-05-10T14:49:19.161Z,3.53
2018-05-10T14:51:50.122Z,3.43
2018-05-10T14:54:21.119Z,3.60
2018-05-10T14:56:52.139Z,3.57
2018-05-10T14:59:23.121Z,3.37
2018-05-10T15:01:54.082Z,3.67
2018-05-10T15:04:25.074Z,4.17
2018-05-10T15:06:56.042Z,3.67
2018-05-10T15:09:27.071Z,3.77
2018-05-10T15:11:58.048Z,5.63
2018-05-10T15:14:29.086Z,3.80
2018-05-10T15:17:00.120Z,5.77
2018-05-10T15:19:31.117Z,3.70
2018-05-10T15:22:02.125Z,3.20
2018-05-10T15:24:33.160Z,4.37
2018-05-10T15:27:04.215Z,4.10
2018-05-10T15:29:35.227Z,3.07
2018-05-10T15:32:06.287Z,3.80
2018-05-10T15:34:37.239Z,3.30
2018-05-10T15:37:08.216Z,4.93
2018-05-10T15:39:39.240Z,3.47
2018-05-10T15:42:10.280Z,3.43
2018-05-10T15:44:41.261Z,3.90
2018-05-10T15:47:12.232Z,4.83
2018-05-10T15:49:43.338Z,4.23
2018-05-10T15:52:14.226Z,3.80
2018-05-10T15:54:45.262Z,4.37
2018-05-10T15:57:16.276Z,4.33
2018-05-10T15:59:47.262Z,3.60
2018-05-10T16:02:18.269Z,4.23
2018-05-10T16:04:49.265Z,3.63
2018-05-10T16:07:20.306Z,4.37
2018-05-10T16:09:52.163Z,3.83
2018-05-10T16:12:23.191Z,4.67
2018-05-10T16:14:54.215Z,3.73
2018-05-10T16:17:25.201Z,3.87
2018-05-10T16:19:56.232Z,4.10
2018-05-10T16:22:27.242Z,3.63
2018-05-10T16:24:58.210Z,3.77
2018-05-10T16:27:29.254Z,3.57
2018-05-10T16:30:00.256Z,3.13
2018-05-10T16:32:31.280Z,3.50
2018-05-10T16:35:02.293Z,3.43
2018-05-10T16:37:33.344Z,4.17
2018-05-10T16:40:04.366Z,3.73
2018-05-10T16:42:35.499Z,4.67
2018-05-10T16:45:06.555Z,4.93
2018-05-10T16:47:37.526Z,5.10
2018-05-10T16:50:08.540Z,4.37
2018-05-10T16:52:39.531Z,4.50
2018-05-10T16:55:10.560Z,4.13
2018-05-10T16:57:41.551Z,4.20
2018-05-10T17:00:12.600Z,4.60
2018-05-10T17:02:43.569Z,4.80
2018-05-10T17:05:14.613Z,4.13
2018-05-10T17:07:45.635Z,4.10
2018-05-10T17:10:16.615Z,4.60
2018-05-10T17:12:47.616Z,4.00
2018-05-10T17:15:18.648Z,3.80
2018-05-10T17:17:49.682Z,4.03
2018-05-10T17:20:20.708Z,4.57
2018-05-10T17:22:51.726Z,5.40
2018-05-10T17:25:22.771Z,4.90
2018-05-10T17:27:53.791Z,4.10
2018-05-10T17:30:24.761Z,4.33
2018-05-10T17:32:55.774Z,4.93
2018-05-10T17:35:26.787Z,5.03
2018-05-10T17:37:57.813Z,6.33
2018-05-10T17:40:28.834Z,5.70
2018-05-10T17:42:59.858Z,7.67
2018-05-10T17:45:30.857Z,4.23
2018-05-10T17:48:01.902Z,5.47
2018-05-10T17:50:32.881Z,6.13
2018-05-10T17:53:03.918Z,4.27
2018-05-10T17:55:34.903Z,5.10
2018-05-10T17:58:05.980Z,3.87
2018-05-10T18:00:37.175Z,6.13
2018-05-10T18:03:08.210Z,4.90
2018-05-10T18:05:39.212Z,5.57
2018-05-10T18:08:10.213Z,5.37
2018-05-10T18:10:41.181Z,4.80
2018-05-10T18:13:12.187Z,5.23
2018-05-10T18:15:43.229Z,5.80
2018-05-10T18:18:14.186Z,7.70
2018-05-10T18:20:45.201Z,8.20
2018-05-10T18:23:16.304Z,9.10
2018-05-10T18:25:47.214Z,9.77
2018-05-10T18:28:18.216Z,13.43
2018-05-10T18:30:49.232Z,16.93
2018-05-10T18:33:20.261Z,19.07
2018-05-10T18:35:51.283Z,20.60
2018-05-10T18:38:22.242Z,21.57
2018-05-10T18:40:53.355Z,21.27
2018-05-10T18:43:24.801Z,21.63
2018-05-10T18:45:55.811Z,22.00
2018-05-10T18:48:26.941Z,20.33
2018-05-10T18:50:57.866Z,19.53
2018-05-10T18:53:28.898Z,19.27
2018-05-10T18:55:59.910Z,19.30
2018-05-10T18:58:30.942Z,17.63
2018-05-10T19:01:02.019Z,17.87
2018-05-10T19:03:33.188Z,12.53
2018-05-10T19:06:04.162Z,8.27
2018-05-10T19:08:35.131Z,7.90
2018-05-10T19:11:06.149Z,5.57
2018-05-10T19:13:37.108Z,6.40
2018-05-10T19:16:08.185Z,5.10
2018-05-10T19:18:39.143Z,4.60
2018-05-10T19:21:12.174Z,4.97
2018-05-10T19:23:44.275Z,4.53
2018-05-10T19:26:17.555Z,4.23
2018-05-10T19:28:49.773Z,5.50
2018-05-10T19:31:22.238Z,5.20
2018-05-10T19:33:54.711Z,5.30
2018-05-10T19:36:25.804Z,4.07
2018-05-10T19:38:58.367Z,4.73
2018-05-10T19:41:29.476Z,4.27
2018-05-10T19:44:00.460Z,4.73
2018-05-10T19:46:31.409Z,4.40
2018-05-10T19:49:02.418Z,4.87
2018-05-10T19:51:33.422Z,4.83
2018-05-10T19:54:04.431Z,5.40
2018-05-10T19:56:35.477Z,4.67
2018-05-10T19:59:06.385Z,5.83
2018-05-10T20:01:37.362Z,5.27
2018-05-10T20:04:08.388Z,6.03
2018-05-10T20:06:39.403Z,5.60
2018-05-10T20:09:17.349Z,6.20
2018-05-10T20:11:48.405Z,5.77
2018-05-10T20:14:21.538Z,6.63
2018-05-10T20:16:54.566Z,6.03
2018-05-10T20:19:27.775Z,7.43
2018-05-10T20:22:01.092Z,6.93
2018-05-10T20:24:33.732Z,7.90
2018-05-10T20:27:07.538Z,7.77
2018-05-10T20:29:41.150Z,8.07
2018-05-10T20:32:14.501Z,7.73
2018-05-10T20:34:46.842Z,7.90
2018-05-10T20:37:19.512Z,9.17
2018-05-10T20:39:52.465Z,7.83
2018-05-10T20:42:25.084Z,9.50
2018-05-10T20:44:58.035Z,10.27
2018-05-10T20:47:32.137Z,10.20
2018-05-10T20:50:04.555Z,10.87
2018-05-10T20:52:37.615Z,10.00
2018-05-10T20:55:10.167Z,10.97
2018-05-10T20:57:43.458Z,11.70
2018-05-10T21:00:15.984Z,12.60
2018-05-10T21:02:49.142Z,12.33
2018-05-10T21:05:21.485Z,12.30
2018-05-10T21:07:54.258Z,11.77
2018-05-10T21:10:26.890Z,12.53
2018-05-10T21:12:59.242Z,13.37
2018-05-10T21:15:31.881Z,14.00
2018-05-10T21:18:04.220Z,13.17
2018-05-10T21:20:37.531Z,11.80
2018-05-10T21:23:10.580Z,13.57
2018-05-10T21:25:41.800Z,13.60
2018-05-10T21:28:12.778Z,13.50
2018-05-10T21:30:43.756Z,14.60
2018-05-10T21:33:14.681Z,13.27
2018-05-10T21:35:45.655Z,15.03
2018-05-10T21:38:16.883Z,14.57
2018-05-10T21:40:47.868Z,13.27
2018-05-10T21:43:18.866Z,14.50
2018-05-10T21:45:49.856Z,14.43
2018-05-10T21:48:20.877Z,14.20
2018-05-10T21:50:51.889Z,15.40
2018-05-10T21:53:22.988Z,16.13
2018-05-10T21:55:53.903Z,14.87
2018-05-10T21:58:24.920Z,14.03
2018-05-10T22:00:55.900Z,14.50
2018-05-10T22:03:26.895Z,13.60
2018-05-10T22:05:57.882Z,14.00
2018-05-10T22:08:28.886Z,14.37
2018-05-10T22:10:59.844Z,14.57
2018-05-10T22:13:30.914Z,13.93
2018-05-10T22:16:01.914Z,14.60
2018-05-10T22:18:32.929Z,14.60
2018-05-10T22:21:03.897Z,14.47
2018-05-10T22:23:34.875Z,15.73
2018-05-10T22:26:05.797Z,15.10
2018-05-10T22:28:36.823Z,14.07
2018-05-10T22:31:07.773Z,15.33
2018-05-10T22:33:38.755Z,15.17
2018-05-10T22:36:09.752Z,13.43
2018-05-10T22:38:40.718Z,15.40
2018-05-10T22:41:11.655Z,13.33
2018-05-10T22:43:42.645Z,14.50
2018-05-10T22:46:13.661Z,13.80
2018-05-10T22:48:44.646Z,16.57
2018-05-10T22:51:15.650Z,15.27
2018-05-10T22:53:46.666Z,14.50
2018-05-10T22:56:17.660Z,14.60
2018-05-10T22:58:48.708Z,15.00
2018-05-10T23:01:19.734Z,15.30
2018-05-10T23:03:50.735Z,13.63
2018-05-10T23:06:21.724Z,15.30
2018-05-10T23:08:52.752Z,14.40
2018-05-10T23:11:23.718Z,15.20
2018-05-10T23:13:54.724Z,15.37
2018-05-10T23:16:25.706Z,16.23
2018-05-10T23:18:56.662Z,15.33
2018-05-10T23:21:27.659Z,13.73
2018-05-10T23:23:58.617Z,15.63
2018-05-10T23:26:29.597Z,14.60
2018-05-10T23:29:00.603Z,14.17
2018-05-10T23:31:31.590Z,14.87
2018-05-10T23:34:02.600Z,15.70
2018-05-10T23:36:33.538Z,16.60
2018-05-10T23:39:04.591Z,15.07
2018-05-10T23:41:35.585Z,13.93
2018-05-10T23:44:06.576Z,15.73
2018-05-10T23:46:37.582Z,15.17
2018-05-10T23:49:08.550Z,15.17
2018-05-10T23:51:39.506Z,17.10
2018-05-10T23:54:10.467Z,15.10
2018-05-10T23:56:41.474Z,16.20
2018-05-10T23:59:12.496Z,15.63
